Time;durP1;ratioP1;P1;durP2;ratioP2;P2;SDS_P1;SDS_P2;PMS_P1;PMS_P2;Temp;Humidity;BMP_temperature;BMP_pressure;BME280_temperature;BME280_humidity;BME280_pressure;Samples;Min_cycle;Max_cycle;Signal;HPM_P1;HPM_P2
2022/01/19 00:00:22;;;;;;;10.02;9.18;;;;;;;3.95;82.52;101798.31;10419569;28;20064;-82
2022/01/19 00:05:23;;;;;;;9.90;8.95;;;;;;;3.88;82.69;101792.91;10397891;28;20057;-82
2022/01/19 00:10:28;;;;;;;9.57;8.70;;;;;;;4.12;81.46;101782.19;10438995;28;20046;-82
2022/01/19 00:15:29;;;;;;;10.77;9.68;;;;;;;4.01;81.74;101776.75;10423912;28;20046;-82
2022/01/19 00:20:33;;;;;;;10.05;9.23;;;;;;;3.95;81.99;101761.00;10422674;28;20113;-82
2022/01/19 00:25:38;;;;;;;9.60;8.90;;;;;;;3.98;81.52;101756.72;10468703;28;20045;-80
2022/01/19 00:30:43;;;;;;;11.05;10.15;;;;;;;3.84;82.58;101732.13;10453790;28;20041;-81
2022/01/19 00:35:45;;;;;;;10.50;9.70;;;;;;;3.92;81.70;101733.19;10452651;28;20041;-81
2022/01/19 00:40:47;;;;;;;12.07;11.02;;;;;;;3.86;81.98;101733.06;10441282;23;20045;-75
2022/01/19 00:45:49;;;;;;;10.05;9.25;;;;;;;4.00;81.88;101743.78;10423460;28;20457;-75
2022/01/19 00:51:00;;;;;;;11.65;10.75;;;;;;;3.90;81.73;101744.44;10425442;28;20095;-75
2022/01/19 00:56:05;;;;;;;12.18;11.15;;;;;;;3.75;83.39;101739.72;10406280;28;20042;-75
2022/01/19 01:01:07;;;;;;;12.02;11.02;;;;;;;3.97;81.39;101751.50;10406227;28;20140;-75
2022/01/19 01:06:08;;;;;;;12.75;11.65;;;;;;;3.89;81.82;101738.31;10405190;28;20049;-74
2022/01/19 01:11:10;;;;;;;12.95;11.80;;;;;;;3.93;81.64;101728.88;10422281;28;20029;-76
2022/01/19 01:16:31;;;;;;;12.52;11.45;;;;;;;3.89;81.75;101714.91;10404342;28;20104;-74
2022/01/19 01:21:33;;;;;;;13.88;12.68;;;;;;;3.79;82.28;101697.34;10422339;28;20471;-75
2022/01/19 01:26:35;;;;;;;12.95;11.95;;;;;;;3.78;82.24;101693.00;10421813;28;20499;-75
2022/01/19 01:31:36;;;;;;;14.95;13.75;;;;;;;3.70;82.50;101682.41;10421900;28;20046;-74
2022/01/19 01:36:38;;;;;;;15.02;13.55;;;;;;;3.74;82.63;101685.97;10404539;28;20053;-76
2022/01/19 01:41:39;;;;;;;14.98;13.68;;;;;;;3.84;81.41;101672.31;10422083;28;20482;-75
2022/01/19 01:46:54;;;;;;;13.95;12.88;;;;;;;3.87;81.22;101661.09;10404264;28;20049;-74
2022/01/19 01:57:16;;;;;;;14.50;13.40;;;;;;;4.07;79.63;101653.69;10404767;28;20138;-74
2022/01/19 02:02:18;;;;;;;17.48;15.85;;;;;;;3.98;80.21;101663.06;10402766;28;20399;-74
2022/01/19 02:07:32;;;;;;;17.83;16.13;;;;;;;3.92;80.47;101670.75;10421099;28;20046;-75
2022/01/19 02:23:26;;;;;;;18.98;17.17;;;;;;;3.81;81.26;101620.22;10419455;28;20099;-75
2022/01/19 02:49:55;;;;;;;14.23;13.15;;;;;;;3.61;81.45;101572.97;10372552;28;20095;-75
2022/01/19 02:54:56;;;;;;;13.52;12.32;;;;;;;3.78;80.19;101549.94;10417709;28;20095;-75
2022/01/19 03:06:30;;;;;;;13.05;11.82;;;;;;;3.65;81.07;101547.94;10418348;28;20041;-75
2022/01/19 03:10:41;;;;;;;12.50;11.50;;;;;;;3.35;81.99;101529.97;10418705;28;20057;-75
2022/01/19 03:15:43;;;;;;;12.35;11.45;;;;;;;3.36;82.15;101524.78;10400195;28;20091;-75
2022/01/19 03:20:44;;;;;;;12.07;11.18;;;;;;;3.31;82.13;101526.41;10418634;28;20045;-75
2022/01/19 03:25:47;;;;;;;12.35;11.27;;;;;;;3.11;82.81;101513.00;10417602;28;20404;-75
2022/01/19 03:30:49;;;;;;;11.10;10.23;;;;;;;3.01;83.78;101492.81;10400464;28;20096;-75
2022/01/19 03:35:51;;;;;;;12.27;11.38;;;;;;;2.89;84.00;101490.84;10400239;28;20088;-74
2022/01/19 03:40:53;;;;;;;11.88;10.95;;;;;;;2.82;84.30;101468.16;10417310;28;20033;-75
2022/01/19 03:45:58;;;;;;;11.23;10.43;;;;;;;2.68;84.71;101467.84;10417111;28;20099;-75
2022/01/19 03:51:00;;;;;;;11.88;10.98;;;;;;;2.46;85.25;101448.28;10398713;28;20053;-75
2022/01/19 03:56:03;;;;;;;11.82;10.90;;;;;;;2.27;85.67;101454.78;10416926;28;20049;-74
2022/01/19 04:01:05;;;;;;;10.82;9.82;;;;;;;2.16;85.58;101429.38;10399082;28;20527;-76
2022/01/19 04:06:26;;;;;;;11.27;10.32;;;;;;;2.05;85.85;101417.88;10398741;28;20046;-76
2022/01/19 04:11:28;;;;;;;10.57;9.65;;;;;;;1.89;86.24;101412.28;10417100;28;20456;-75
2022/01/19 04:16:31;;;;;;;10.50;9.60;;;;;;;1.68;86.65;101401.38;10382634;28;20053;-75
2022/01/19 04:21:35;;;;;;;10.75;9.85;;;;;;;1.51;86.75;101385.41;10398586;28;20069;-76
2022/01/19 04:26:36;;;;;;;11.00;10.00;;;;;;;1.28;87.22;101382.16;10398787;28;20053;-75
2022/01/19 04:31:38;;;;;;;11.15;10.25;;;;;;;1.22;87.83;101363.88;10399618;28;20457;-75
2022/01/19 04:37:20;;;;;;;11.15;10.15;;;;;;;1.22;87.71;101361.28;10384779;28;20051;-76
2022/01/19 05:08:57;;;;;;;12.82;11.73;;;;;;;0.56;88.96;101336.09;10422517;28;20045;-75
2022/01/19 05:13:59;;;;;;;12.50;11.25;;;;;;;0.52;90.47;101338.56;10405943;28;20041;-75
2022/01/19 05:19:04;;;;;;;12.60;11.52;;;;;;;0.46;89.46;101337.53;10404905;28;20052;-76
2022/01/19 05:24:08;;;;;;;14.85;13.52;;;;;;;0.58;90.52;101320.66;10422434;28;20068;-76
2022/01/19 05:29:11;;;;;;;13.70;12.40;;;;;;;0.62;89.04;101306.94;10404872;28;20068;-75
2022/01/19 05:34:13;;;;;;;13.57;12.25;;;;;;;0.40;89.54;101301.16;10404732;28;20096;-75
2022/01/19 05:39:23;;;;;;;14.18;13.00;;;;;;;0.37;89.79;101295.00;10403950;28;20042;-75
2022/01/19 05:44:36;;;;;;;14.70;13.27;;;;;;;0.07;90.93;101282.91;10404916;28;20468;-75
2022/01/19 05:49:39;;;;;;;15.07;13.45;;;;;;;0.22;90.86;101272.13;10387527;28;20046;-75
2022/01/19 05:54:41;;;;;;;14.63;13.20;;;;;;;0.08;91.26;101265.69;10403540;28;20045;-75
2022/01/19 05:59:44;;;;;;;13.13;11.82;;;;;;;0.05;90.79;101260.44;10403537;28;20045;-75
2022/01/19 06:04:46;;;;;;;14.55;12.93;;;;;;;0.11;90.02;101245.09;10403096;28;20045;-75
2022/01/19 06:15:37;;;;;;;12.50;11.30;;;;;;;-0.22;91.67;101239.75;10402189;28;20076;-75
2022/01/19 06:20:39;;;;;;;16.00;14.30;;;;;;;-0.33;92.61;101229.97;10402833;28;20049;-75
2022/01/19 06:25:41;;;;;;;16.13;14.60;;;;;;;-0.32;92.21;101223.09;10385506;28;20115;-75
2022/01/19 06:30:42;;;;;;;19.83;17.77;;;;;;;-0.43;93.06;101221.91;10402634;28;20120;-75
2022/01/19 06:35:44;;;;;;;15.23;13.40;;;;;;;-0.33;93.15;101217.06;10402574;28;20045;-75
2022/01/19 06:40:53;;;;;;;15.13;13.52;;;;;;;-0.26;91.90;101215.56;10421518;23;20072;-75
2022/01/19 06:45:56;;;;;;;14.45;13.00;;;;;;;-0.29;92.17;101194.78;10408606;28;20046;-76
2022/01/19 06:50:58;;;;;;;15.50;13.18;;;;;;;-0.30;92.02;101190.44;10390172;28;20072;-76
2022/01/19 06:56:11;;;;;;;15.93;14.30;;;;;;;-0.07;90.61;101181.69;10395582;28;20053;-76
2022/01/19 07:01:13;;;;;;;13.73;12.50;;;;;;;-0.48;90.98;101182.13;10409646;28;20037;-75
2022/01/19 07:06:34;;;;;;;14.75;13.45;;;;;;;-0.42;91.77;101174.56;10406252;28;20045;-76
2022/01/19 07:12:11;;;;;;;16.38;14.75;;;;;;;-0.52;92.42;101171.69;10325979;28;20053;-75
2022/01/19 07:17:16;;;;;;;18.48;16.85;;;;;;;-0.71;93.10;101153.84;10406238;28;20060;-77
2022/01/19 07:22:18;;;;;;;17.52;16.00;;;;;;;-0.61;93.46;101136.97;10409303;28;20513;-76
2022/01/19 07:27:22;;;;;;;17.85;16.33;;;;;;;-0.66;94.09;101136.81;10406733;28;20056;-76
2022/01/19 07:32:29;;;;;;;23.33;20.25;;;;;;;-0.53;94.29;101126.03;10425314;28;20037;-76
2022/01/19 07:37:32;;;;;;;22.50;19.20;;;;;;;-0.58;94.21;101114.66;10407691;28;20084;-76
2022/01/19 07:42:34;;;;;;;28.30;21.08;;;;;;;-0.61;94.32;101101.69;10407584;28;20105;-75
2022/01/19 07:47:39;;;;;;;22.00;19.80;;;;;;;-0.62;94.66;101096.47;10406867;28;20426;-75
2022/01/19 07:53:03;;;;;;;22.67;20.13;;;;;;;-0.61;94.97;101081.03;10401089;28;20049;-76
2022/01/19 07:58:21;;;;;;;23.50;21.02;;;;;;;-0.33;95.39;101071.50;10407462;28;20050;-76
2022/01/19 08:03:41;;;;;;;21.52;18.45;;;;;;;-0.31;94.60;101065.56;10414106;28;20113;-77
2022/01/19 08:08:51;;;;;;;22.58;18.58;;;;;;;-0.38;95.22;101063.63;10395257;28;20045;-78
2022/01/19 08:13:53;;;;;;;26.95;19.63;;;;;;;-0.32;96.00;101055.16;10412282;28;20068;-77
2022/01/19 08:18:55;;;;;;;26.80;20.02;;;;;;;-0.19;95.78;101035.72;10393586;28;20065;-77
2022/01/19 08:23:57;;;;;;;28.08;20.25;;;;;;;-0.07;95.58;101026.59;10407240;28;20140;-77
2022/01/19 08:28:58;;;;;;;31.83;20.40;;;;;;;-0.03;95.22;101023.25;10414285;28;20051;-78
2022/01/19 08:34:02;;;;;;;22.50;19.70;;;;;;;0.05;95.31;101017.44;10422522;28;20046;-77
2022/01/19 08:39:32;;;;;;;28.27;20.00;;;;;;;0.16;95.31;101000.47;10426782;28;20045;-77
2022/01/19 08:44:34;;;;;;;26.65;22.45;;;;;;;0.54;94.19;101000.56;10422295;28;20041;-77
2022/01/19 08:49:55;;;;;;;21.60;19.48;;;;;;;0.43;93.21;100989.94;10421525;28;20079;-77
2022/01/19 08:55:15;;;;;;;20.00;18.13;;;;;;;0.56;93.20;100988.53;10421484;28;20562;-77
2022/01/19 09:00:19;;;;;;;20.05;18.25;;;;;;;0.98;90.24;100981.78;10413708;28;20052;-76
2022/01/19 09:05:20;;;;;;;21.00;19.08;;;;;;;0.81;90.29;100987.41;10433739;28;20026;-77
2022/01/19 09:10:22;;;;;;;20.30;18.35;;;;;;;0.80;90.67;100994.31;10436391;28;20049;-78
2022/01/19 09:15:24;;;;;;;22.42;19.55;;;;;;;0.83;90.48;101001.25;10435239;28;20049;-78
2022/01/19 09:20:26;;;;;;;22.33;20.33;;;;;;;0.88;90.26;101008.28;10433990;28;20041;-78
2022/01/19 09:25:28;;;;;;;22.98;20.73;;;;;;;1.11;89.30;101013.13;10434532;28;20128;-78
2022/01/19 09:30:31;;;;;;;22.83;20.42;;;;;;;1.28;88.14;101006.56;10421443;28;20052;-79
2022/01/19 09:35:51;;;;;;;23.38;21.13;;;;;;;1.50;87.80;101013.06;10437306;28;20050;-78
2022/01/19 09:40:53;;;;;;;24.25;22.05;;;;;;;1.82;86.38;101007.69;10424058;28;20048;-79
2022/01/19 09:45:57;;;;;;;30.63;24.92;;;;;;;1.68;86.89;100997.03;10427489;28;20474;-79
2022/01/19 09:50:59;;;;;;;22.88;20.90;;;;;;;1.71;85.68;100997.09;10447671;28;20111;-79
2022/01/19 09:56:03;;;;;;;22.50;20.35;;;;;;;1.82;85.35;101000.78;10445470;28;20047;-78
2022/01/19 10:01:04;;;;;;;22.25;20.35;;;;;;;2.08;83.55;101002.97;10426394;28;20052;-78
2022/01/19 10:06:18;;;;;;;12.45;11.45;;;;;;;2.01;83.75;101000.28;10425280;28;20053;-78
2022/01/19 10:17:00;;;;;;;16.15;14.45;;;;;;;2.05;83.96;100977.00;10440327;28;20049;-78
2022/01/19 10:22:04;;;;;;;11.32;10.35;;;;;;;2.28;81.88;100954.91;10419235;28;20065;-79
2022/01/19 10:27:34;;;;;;;9.25;8.55;;;;;;;2.14;82.57;100940.84;10425387;28;20068;-78
2022/01/19 10:32:59;;;;;;;12.43;11.27;;;;;;;2.19;82.52;100942.66;10439278;28;20107;-77
2022/01/19 10:38:13;;;;;;;14.27;12.98;;;;;;;2.57;82.02;100933.72;10421715;28;20080;-78
2022/01/19 10:43:38;;;;;;;13.35;12.35;;;;;;;2.35;82.65;100910.06;10419049;28;20049;-78
2022/01/19 10:48:40;;;;;;;14.68;13.48;;;;;;;2.40;82.44;100887.66;10404186;28;20067;-78
2022/01/19 10:53:45;;;;;;;13.50;12.40;;;;;;;2.52;81.81;100885.25;10435930;28;20045;-78
2022/01/19 10:58:55;;;;;;;13.70;12.60;;;;;;;2.47;82.39;100867.84;10419299;28;20111;-78
2022/01/19 11:04:16;;;;;;;13.57;12.57;;;;;;;2.95;80.60;100846.00;10435426;28;20026;-78
2022/01/19 11:09:23;;;;;;;12.25;11.32;;;;;;;3.13;79.35;100827.16;10415142;28;20049;-78
2022/01/19 11:14:26;;;;;;;11.48;10.57;;;;;;;4.15;75.51;100812.47;10415448;28;20045;-78
2022/01/19 11:19:28;;;;;;;9.88;9.18;;;;;;;5.70;67.40;100800.00;10438821;28;20053;-78
2022/01/19 11:24:41;;;;;;;11.60;10.70;;;;;;;6.33;66.10;100787.81;10421842;28;20460;-78
2022/01/19 11:29:44;;;;;;;9.70;8.90;;;;;;;8.03;60.40;100771.94;10436584;28;20053;-77
2022/01/19 11:34:52;;;;;;;10.35;9.52;;;;;;;7.88;58.88;100768.59;10428824;28;20083;-78
2022/01/19 11:39:59;;;;;;;10.15;9.25;;;;;;;9.22;56.76;100745.22;10407786;28;20129;-77
2022/01/19 11:45:03;;;;;;;10.48;9.60;;;;;;;9.29;53.93;100725.84;10427200;28;20042;-77
2022/01/19 11:50:15;;;;;;;10.05;9.35;;;;;;;9.41;53.57;100724.81;10433000;28;20102;-78
2022/01/19 11:55:20;;;;;;;11.18;10.38;;;;;;;8.39;55.52;100719.22;10431213;28;20045;-78
2022/01/19 12:00:31;;;;;;;12.40;11.30;;;;;;;7.68;59.80;100705.97;10419958;28;20071;-78
2022/01/19 12:05:41;;;;;;;11.88;10.73;;;;;;;7.45;58.99;100691.34;10434853;28;20069;-78
2022/01/19 12:10:47;;;;;;;12.27;11.38;;;;;;;6.25;62.75;100680.78;10434683;28;20507;-77
2022/01/19 12:16:02;;;;;;;12.25;11.35;;;;;;;6.86;63.51;100669.13;10434701;28;20088;-77
2022/01/19 12:21:05;;;;;;;12.50;11.50;;;;;;;7.24;60.37;100640.09;10436741;28;20068;-77
2022/01/19 12:26:09;;;;;;;12.77;11.88;;;;;;;6.93;61.07;100605.50;10422821;28;20045;-78
2022/01/19 12:31:33;;;;;;;13.90;12.75;;;;;;;6.31;62.44;100591.09;10433383;28;20045;-76
2022/01/19 12:36:44;;;;;;;13.77;12.68;;;;;;;5.99;63.87;100573.88;10434651;28;20059;-77
2022/01/19 12:42:02;;;;;;;14.35;13.25;;;;;;;5.49;65.94;100555.72;10420226;23;20053;-69
2022/01/19 12:47:28;;;;;;;16.33;13.52;;;;;;;4.94;66.43;100548.00;10404284;28;20144;-67
2022/01/19 12:52:32;;;;;;;15.27;13.98;;;;;;;4.85;68.00;100519.38;10422690;28;20449;-68
2022/01/19 12:57:35;;;;;;;15.90;14.60;;;;;;;5.31;65.53;100505.41;10421838;28;20107;-70
2022/01/19 13:02:36;;;;;;;16.40;14.77;;;;;;;4.99;66.80;100491.56;10424524;28;20099;-70
2022/01/19 13:07:40;;;;;;;13.95;12.75;;;;;;;4.70;67.35;100494.22;10422685;28;20077;-68
2022/01/19 13:12:50;;;;;;;14.80;13.60;;;;;;;5.11;65.90;100504.56;10421532;28;20042;-70
2022/01/19 13:17:52;;;;;;;13.45;12.45;;;;;;;5.04;66.47;100475.03;10419930;28;20045;-68
2022/01/19 13:22:56;;;;;;;13.02;11.93;;;;;;;4.97;66.28;100459.44;10420353;28;20034;-69
2022/01/19 13:28:01;;;;;;;12.82;11.73;;;;;;;4.87;66.36;100452.50;10420159;28;20553;-69
2022/01/19 13:33:10;;;;;;;11.15;10.35;;;;;;;4.63;67.40;100458.63;10402349;28;20045;-70
2022/01/19 13:38:18;;;;;;;10.57;9.88;;;;;;;4.73;65.94;100457.72;10419900;28;20052;-70
2022/01/19 13:43:20;;;;;;;10.65;9.85;;;;;;;4.73;65.41;100449.91;10421633;28;20053;-69
2022/01/19 13:48:32;;;;;;;10.10;9.40;;;;;;;4.45;67.23;100439.53;10419209;28;20100;-68
2022/01/19 13:53:39;;;;;;;11.65;10.75;;;;;;;4.50;66.46;100436.94;10420057;28;20137;-69
2022/01/19 13:58:54;;;;;;;11.43;10.45;;;;;;;4.29;67.03;100433.47;10401588;28;20045;-69
2022/01/19 14:04:04;;;;;;;10.25;9.50;;;;;;;4.37;67.16;100424.78;10418591;28;20359;-68
2022/01/19 14:09:36;;;;;;;11.30;10.30;;;;;;;4.12;67.87;100416.09;10419199;28;20506;-69
2022/01/19 14:14:42;;;;;;;11.77;10.88;;;;;;;4.00;68.84;100402.22;10418179;28;20091;-69
2022/01/19 14:19:48;;;;;;;10.15;9.40;;;;;;;4.22;67.96;100413.53;10418025;28;20044;-69
2022/01/19 14:25:04;;;;;;;9.80;8.80;;;;;;;4.24;66.91;100395.28;10418625;28;20403;-69
2022/01/19 14:30:29;;;;;;;9.35;8.65;;;;;;;4.08;67.58;100393.59;10417840;28;20054;-68
2022/01/19 14:35:41;;;;;;;8.23;7.53;;;;;;;3.82;68.03;100386.63;10417588;28;20041;-68
2022/01/19 14:41:05;;;;;;;10.13;9.40;;;;;;;3.66;68.62;100380.50;10417080;28;20056;-68
2022/01/19 14:46:11;;;;;;;8.52;7.93;;;;;;;3.56;69.69;100372.69;10416782;28;20451;-68
2022/01/19 14:51:31;;;;;;;12.17;8.83;;;;;;;3.59;69.69;100367.53;10416731;28;20049;-68
2022/01/19 14:56:40;;;;;;;11.07;8.52;;;;;;;3.41;70.22;100356.22;10416688;28;20519;-69
2022/01/19 15:01:44;;;;;;;9.68;8.77;;;;;;;3.50;70.34;100345.84;10417274;28;20089;-69
2022/01/19 15:06:47;;;;;;;9.02;8.32;;;;;;;3.23;71.11;100340.56;10416184;28;20458;-68
2022/01/19 15:11:49;;;;;;;10.73;9.73;;;;;;;3.22;71.70;100331.03;10397742;28;20053;-68
2022/01/19 15:16:50;;;;;;;10.65;9.85;;;;;;;2.94;73.00;100330.94;10415007;28;20060;-68
2022/01/19 15:21:52;;;;;;;10.43;9.43;;;;;;;2.81;73.08;100321.38;10414553;28;20116;-68
2022/01/19 15:26:54;;;;;;;14.18;12.88;;;;;;;2.76;73.76;100321.34;10414614;28;20456;-67
2022/01/19 15:31:55;;;;;;;10.82;9.93;;;;;;;2.71;74.83;100319.59;10414804;28;20439;-68
2022/01/19 15:36:57;;;;;;;7.13;6.43;;;;;;;3.16;73.77;100315.44;10414571;28;20406;-69
2022/01/19 15:41:59;;;;;;;5.22;4.72;;;;;;;3.31;73.40;100328.47;10414611;28;20052;-68
2022/01/19 15:47:00;;;;;;;4.50;4.18;;;;;;;3.30;72.40;100326.72;10414274;28;20045;-67
2022/01/19 15:52:03;;;;;;;5.38;4.15;;;;;;;3.11;73.59;100311.97;10414091;28;20128;-67
2022/01/19 15:57:05;;;;;;;6.80;6.28;;;;;;;2.68;74.98;100315.25;10414419;28;20491;-69
2022/01/19 16:02:07;;;;;;;5.55;5.10;;;;;;;2.47;75.84;100308.22;10414290;28;20041;-68
2022/01/19 16:07:09;;;;;;;8.90;7.88;;;;;;;2.30;76.42;100314.16;10414407;28;20064;-67
2022/01/19 16:12:11;;;;;;;8.85;7.82;;;;;;;2.13;77.27;100303.72;10404564;28;20096;-67
2022/01/19 16:17:13;;;;;;;6.75;6.25;;;;;;;2.16;77.90;100312.34;10399795;28;20049;-67
2022/01/19 16:26:06;;;;;;;6.10;5.60;;;;;;;2.06;77.72;100296.75;10380686;28;20042;-68
2022/01/19 16:27:42;;;;;;;7.05;6.47;;;;;;;1.93;78.37;100288.00;10381242;28;20054;-68
2022/01/19 16:32:44;;;;;;;6.82;6.32;;;;;;;1.84;78.88;100298.31;10413698;28;20079;-67
2022/01/19 16:37:45;;;;;;;7.20;6.60;;;;;;;1.81;78.69;100293.94;10413137;28;20103;-67
2022/01/19 16:42:47;;;;;;;8.68;7.47;;;;;;;1.60;78.84;100286.88;10413419;28;20041;-68
2022/01/19 16:47:54;;;;;;;8.07;7.40;;;;;;;1.28;79.77;100281.38;10381729;28;20155;-68
2022/01/19 16:52:56;;;;;;;9.93;9.13;;;;;;;1.13;80.81;100276.94;10395614;28;20050;-67
2022/01/19 16:57:58;;;;;;;9.55;8.05;;;;;;;1.00;81.05;100275.94;10397418;28;20103;-68
2022/01/19 17:02:59;;;;;;;9.98;9.18;;;;;;;0.94;81.67;100285.38;10421710;28;20045;-69
2022/01/19 17:08:01;;;;;;;10.00;9.00;;;;;;;1.05;81.52;100281.16;10391744;28;20432;-68
2022/01/19 17:13:14;;;;;;;11.30;10.30;;;;;;;1.06;81.98;100292.38;10379375;28;20042;-67
2022/01/19 17:18:16;;;;;;;11.00;10.10;;;;;;;1.26;81.77;100296.06;10382120;28;20065;-67
2022/01/19 17:23:18;;;;;;;9.20;8.40;;;;;;;1.54;80.53;100278.19;10411446;28;20038;-68
2022/01/19 17:28:20;;;;;;;8.05;7.35;;;;;;;1.87;77.66;100269.81;10395816;28;20499;-67
2022/01/19 17:33:21;;;;;;;7.10;6.50;;;;;;;2.22;74.85;100259.69;10402282;28;20033;-68
2022/01/19 17:38:23;;;;;;;7.78;7.03;;;;;;;2.27;74.98;100255.38;10418524;28;20053;-68
2022/01/19 17:43:25;;;;;;;8.27;7.47;;;;;;;2.48;72.52;100236.47;10404429;28;20040;-68
2022/01/19 17:48:48;;;;;;;9.98;8.68;;;;;;;2.59;71.89;100233.91;10419099;28;20053;-69
2022/01/19 17:53:51;;;;;;;9.90;8.90;;;;;;;2.55;72.52;100263.28;10419244;28;20044;-67
2022/01/19 17:58:52;;;;;;;11.13;10.02;;;;;;;2.65;72.32;100244.28;10404275;28;20050;-68
2022/01/19 18:03:56;;;;;;;11.20;10.07;;;;;;;2.61;72.45;100250.31;10378320;28;20538;-69
2022/01/19 18:08:57;;;;;;;13.35;11.10;;;;;;;2.58;73.14;100242.56;10377247;28;20500;-69
2022/01/19 18:14:00;;;;;;;11.27;10.27;;;;;;;2.57;73.00;100220.94;10377470;28;20046;-70
2022/01/19 18:19:22;;;;;;;12.52;11.43;;;;;;;2.59;73.06;100226.97;10415282;28;20566;-69
2022/01/19 18:24:23;;;;;;;13.68;12.48;;;;;;;2.63;73.47;100226.13;10416573;28;20442;-70
2022/01/19 18:29:25;;;;;;;12.50;11.50;;;;;;;2.79;72.45;100203.69;10396975;28;20050;-70
2022/01/19 18:34:39;;;;;;;13.00;11.82;;;;;;;2.78;72.07;100195.00;10393326;28;20058;-71
2022/01/19 18:39:41;;;;;;;12.52;11.52;;;;;;;2.74;72.53;100190.66;10388076;28;20052;-70
2022/01/19 18:44:43;;;;;;;14.23;12.93;;;;;;;2.85;72.12;100172.53;10433687;23;20037;-73
2022/01/19 18:49:45;;;;;;;12.82;11.65;;;;;;;2.78;72.57;100173.38;10426739;28;20072;-74
2022/01/19 18:54:47;;;;;;;12.82;11.65;;;;;;;2.71;73.38;100166.47;10408516;28;20041;-74
2022/01/19 18:59:52;;;;;;;13.15;11.27;;;;;;;2.79;72.50;100159.56;10421686;28;20570;-75
2022/01/19 19:04:54;;;;;;;11.50;10.50;;;;;;;2.92;71.72;100148.34;10423600;28;20083;-74
2022/01/19 19:15:11;;;;;;;13.20;11.88;;;;;;;2.93;71.30;100126.69;10423355;28;20075;-74
2022/01/19 19:20:15;;;;;;;14.00;10.77;;;;;;;2.94;71.58;100125.81;10408803;28;20049;-74
2022/01/19 19:25:21;;;;;;;10.73;9.80;;;;;;;3.05;70.95;100120.63;10424583;28;20046;-75
2022/01/19 19:30:24;;;;;;;11.27;10.27;;;;;;;3.08;71.00;100119.75;10406723;28;20037;-74
2022/01/19 19:35:28;;;;;;;11.57;9.05;;;;;;;3.08;71.10;100096.38;10422590;28;20041;-74
2022/01/19 19:40:30;;;;;;;11.23;9.30;;;;;;;3.18;70.32;100090.31;10401646;28;20045;-74
2022/01/19 19:45:32;;;;;;;10.52;9.38;;;;;;;3.22;70.24;100094.63;10418579;28;20045;-74
2022/01/19 19:50:37;;;;;;;10.57;9.65;;;;;;;3.03;71.47;100086.88;10401408;28;20053;-74
2022/01/19 19:55:40;;;;;;;9.65;8.95;;;;;;;3.04;70.95;100093.78;10418937;28;20052;-74
2022/01/19 20:00:41;;;;;;;8.75;8.05;;;;;;;3.04;71.17;100078.19;10401719;28;20553;-74
2022/01/19 20:05:43;;;;;;;9.55;8.73;;;;;;;3.15;70.82;100086.00;10400934;28;20049;-73
2022/01/19 20:10:45;;;;;;;9.63;8.73;;;;;;;3.15;70.87;100093.78;10401845;28;20069;-74
2022/01/19 20:15:46;;;;;;;9.95;9.15;;;;;;;3.08;71.22;100086.00;10419568;28;20037;-74
2022/01/19 20:20:48;;;;;;;9.57;8.82;;;;;;;3.00;71.86;100073.00;10418255;28;20128;-74
2022/01/19 20:25:51;;;;;;;16.85;8.60;;;;;;;3.07;71.36;100071.28;10401680;28;20049;-75
2022/01/19 20:30:52;;;;;;;9.98;8.05;;;;;;;2.93;72.09;100069.56;10426121;28;20479;-73
2022/01/19 20:35:55;;;;;;;8.95;8.07;;;;;;;3.10;71.42;100063.47;10424975;28;20099;-74
2022/01/19 20:40:56;;;;;;;8.25;7.55;;;;;;;3.08;70.91;100054.84;10426144;28;20052;-73
2022/01/19 20:45:58;;;;;;;8.40;7.70;;;;;;;3.00;71.19;100054.84;10407918;28;20050;-74
2022/01/19 20:51:00;;;;;;;8.88;8.10;;;;;;;2.92;71.95;100046.19;10425485;28;20057;-73
2022/01/19 20:56:02;;;;;;;8.68;7.88;;;;;;;2.93;71.82;100034.94;10407967;28;20045;-74
2022/01/19 21:01:04;;;;;;;7.97;7.28;;;;;;;2.88;72.09;100011.59;10407018;28;20108;-75
2022/01/19 21:06:05;;;;;;;6.97;6.38;;;;;;;2.92;72.16;100004.63;10407279;28;20109;-73
2022/01/19 21:11:07;;;;;;;6.68;6.07;;;;;;;3.00;71.42;99992.50;10424449;28;20045;-74
2022/01/19 21:16:10;;;;;;;6.68;6.18;;;;;;;2.96;71.34;100003.75;10423459;28;20045;-73
2022/01/19 21:21:12;;;;;;;6.68;6.03;;;;;;;2.87;72.25;99980.41;10423294;28;20561;-73
2022/01/19 21:26:14;;;;;;;6.65;6.05;;;;;;;2.84;73.16;99981.31;10405566;28;20042;-73
2022/01/19 21:31:16;;;;;;;7.25;6.65;;;;;;;2.78;74.22;99978.69;10422990;28;20517;-73
2022/01/19 21:36:18;;;;;;;6.55;6.03;;;;;;;2.65;75.09;99984.75;10389398;28;20052;-73
2022/01/19 21:41:20;;;;;;;7.03;6.43;;;;;;;2.51;76.09;99970.06;10422760;28;20049;-74
2022/01/19 21:46:21;;;;;;;6.35;5.85;;;;;;;2.54;76.31;99958.81;10423443;28;20038;-73
2022/01/19 21:51:23;;;;;;;5.57;5.15;;;;;;;2.44;76.67;99947.59;10422354;28;20045;-74
2022/01/19 21:56:25;;;;;;;6.35;5.85;;;;;;;2.45;77.46;99951.06;10422519;28;20050;-74
2022/01/19 22:01:27;;;;;;;6.85;6.35;;;;;;;2.36;78.81;99951.91;10422279;28;20129;-74
2022/01/19 22:06:29;;;;;;;6.18;5.68;;;;;;;2.31;79.55;99934.63;10405053;28;20084;-73
2022/01/19 22:11:30;;;;;;;6.43;5.90;;;;;;;2.20;80.68;99947.56;10422668;28;20132;-73
2022/01/19 22:16:32;;;;;;;5.90;5.50;;;;;;;2.23;79.83;99953.63;10403626;28;20068;-73
2022/01/19 22:21:34;;;;;;;7.70;5.28;;;;;;;2.29;79.14;99947.56;10420186;28;20045;-73
2022/01/19 22:26:35;;;;;;;6.10;5.35;;;;;;;2.31;78.79;99939.81;10401205;28;20473;-72
2022/01/19 22:31:37;;;;;;;6.20;5.70;;;;;;;2.33;79.26;99935.47;10419243;28;20045;-74
2022/01/19 22:36:44;;;;;;;4.78;4.38;;;;;;;2.37;78.62;99934.63;10418299;28;20041;-74
2022/01/19 22:41:49;;;;;;;5.07;4.57;;;;;;;2.43;77.90;99932.00;10418682;28;20050;-73
2022/01/19 22:46:53;;;;;;;4.72;4.32;;;;;;;2.58;77.10;99942.41;10416438;28;20111;-73
2022/01/19 22:51:55;;;;;;;5.05;4.55;;;;;;;2.51;78.56;99940.66;10418334;28;20045;-73
2022/01/19 22:56:57;;;;;;;5.45;5.05;;;;;;;2.31;81.59;99934.63;10418816;28;20053;-73
2022/01/19 23:01:58;;;;;;;6.57;6.07;;;;;;;2.24;83.67;99946.72;10384291;28;20499;-73
2022/01/19 23:27:29;;;;;;;7.53;6.93;;;;;;;2.03;87.24;99943.22;10417863;28;20446;-73
2022/01/19 23:52:53;;;;;;;6.47;5.97;;;;;;;2.25;86.59;99920.78;10416620;28;20037;-74
2022/01/19 23:58:17;;;;;;;5.65;5.25;;;;;;;2.39;84.87;99904.34;10416695;28;20083;-74
